WetterOnline ( https://www.wetteronline.de )

Wetter aktuell Aachen

Aktuelles Wetter: Aachen-Orsbach (231m)

6-stündlich | Neueste Meldungen
Ortszeit Temperatur Wetter
Mi, 13.11. 1:00 2.9° C bewölkt
Di, 12.11. 19:00 3.7° C wolkenlos
Di, 12.11. 13:00 5.0° C bewölkt
Di, 12.11. 7:00 4.5° C bewölkt
Di, 12.11. 1:00 4.1° C leicht bewölkt
Mo, 11.11. 19:00 4.8° C bewölkt
Mo, 11.11. 13:00 6.1° C bedeckt
Mo, 11.11. 7:00 4.0° C bedeckt
Ortszeit Temperatur Wetter
Mi, 13.11. 2:30 3.5° C bedeckt
Mi, 13.11. 2:20 3.5° C bedeckt
Mi, 13.11. 2:10 3.4° C bedeckt
Mi, 13.11. 2:00 3.4° C bedeckt
Mi, 13.11. 1:50 3.4° C bedeckt
Mi, 13.11. 1:40 3.4° C bewölkt
Mi, 13.11. 1:30 3.1° C leicht bewölkt
Mi, 13.11. 1:00 2.9° C bewölkt
Mi, 13.11. 0:30 3.1° C wolkig
Mi, 13.11. 0:00 3.2° C fast wolkenlos
Di, 12.11. 23:30 2.9° C wolkenlos
Ortszeit Relative Feuchte Sichtweite
Mi, 13.11. 1:00 82% 55 km
Di, 12.11. 19:00 82% 65 km
Di, 12.11. 13:00 83% >70 km
Di, 12.11. 7:00 79% 60 km
Di, 12.11. 1:00 86% 60 km
Mo, 11.11. 19:00 89% >70 km
Mo, 11.11. 13:00 75% 50 km
Mo, 11.11. 7:00 84% 30 km
Ortszeit Relative Feuchte Sichtweite
Mi, 13.11. 2:30 81% 50 km
Mi, 13.11. 2:20 81% -
Mi, 13.11. 2:10 81% -
Mi, 13.11. 2:00 81% 50 km
Mi, 13.11. 1:50 81% -
Mi, 13.11. 1:40 81% -
Mi, 13.11. 1:30 82% 55 km
Mi, 13.11. 1:00 82% 55 km
Mi, 13.11. 0:30 80% 55 km
Mi, 13.11. 0:00 79% 55 km
Di, 12.11. 23:30 81% 50 km
Ortszeit Niederschlagsmenge Niederschlagsart
Mi, 13.11. 1:00 0.0 l/m2 in 6 Std. -
Di, 12.11. 19:00 0.6 l/m2 in 12 Std. -
Di, 12.11. 13:00 0.6 l/m2 in 6 Std. Schnee, Regen
Di, 12.11. 7:00 0.1 l/m2 in 12 Std. Regen
Di, 12.11. 1:00 0.1 l/m2 in 6 Std. Regen
Mo, 11.11. 19:00 2 l/m2 in 12 Std. Regen
Mo, 11.11. 13:00 0.0 l/m2 in 6 Std. -
Mo, 11.11. 7:00 0.0 l/m2 in 12 Std. -
Ortszeit Niederschlagsmenge Niederschlagsart
Mi, 13.11. 2:30 0.0 l/m2 in 1 Std. -
Mi, 13.11. 2:20 keine Meldung -
Mi, 13.11. 2:10 keine Meldung -
Mi, 13.11. 2:00 0.0 l/m2 in 1 Std. -
Mi, 13.11. 1:50 keine Meldung -
Mi, 13.11. 1:40 keine Meldung -
Mi, 13.11. 1:30 0.0 l/m2 in 1 Std. -
Mi, 13.11. 1:00 0.0 l/m2 in 1 Std. -
Mi, 13.11. 0:30 0.0 l/m2 in 1 Std. -
Mi, 13.11. 0:00 0.0 l/m2 in 1 Std. -
Di, 12.11. 23:30 0.0 l/m2 in 1 Std. -
Ortszeit Stärke Spitze Richtung
km/h Bft. km/h Grad Sektor
Mi, 13.11. 1:00 22 4 43 210° SW
Di, 12.11. 19:00 26 4 39 200° S
Di, 12.11. 13:00 28 4 48 210° SW
Di, 12.11. 7:00 30 5 46 210° SW
Di, 12.11. 1:00 29 5 43 210° SW
Mo, 11.11. 19:00 28 4 56 210° SW
Mo, 11.11. 13:00 36 5 65 200° S
Mo, 11.11. 7:00 17 3 31 160° S
Ortszeit Stärke Spitze Richtung
km/h Bft. km/h Grad Sektor
Mi, 13.11. 2:30 22 4 36 200° S
Mi, 13.11. 2:20 22 4 - 200° S
Mi, 13.11. 2:10 24 4 - 200° S
Mi, 13.11. 2:00 22 4 35 200° S
Mi, 13.11. 1:50 22 4 - 200° S
Mi, 13.11. 1:40 24 4 - 200° S
Mi, 13.11. 1:30 22 4 32 200° S
Mi, 13.11. 1:00 22 4 40 210° SW
Mi, 13.11. 0:30 24 4 39 200° S
Mi, 13.11. 0:00 26 4 37 200° S
Di, 12.11. 23:30 22 4 32 200° S
Ortszeit Untergrenze Bedeckung Gattung
total tief tief mittel hoch
Mi, 13.11. 1:00 1800 m 7/8 7/8 - - -
Di, 12.11. 19:00 - 0/8 0/8 - - -
Di, 12.11. 13:00 480 m 7/8 7/8 - - -
Di, 12.11. 7:00 540 m 7/8 7/8 - - -
Di, 12.11. 1:00 5100 m 2/8 2/8 - - -
Mo, 11.11. 19:00 570 m 7/8 7/8 - - -
Mo, 11.11. 13:00 4500 m 8/8 8/8 - - -
Mo, 11.11. 7:00 6600 m 8/8 8/8 - - -
Ortszeit Bedeckungsgrad in Achtel und Wolkenuntergrenze
Mi, 13.11. 2:30 3(1140m) 8(1350m) 8(1800m)
Mi, 13.11. 2:20 3(1140m) 8(1350m) 8(1800m)
Mi, 13.11. 2:10 7(1350m) 7(1800m) 8(2100m)
Mi, 13.11. 2:00 7(1470m) 7(1800m) 8(2100m)
Mi, 13.11. 1:50 7(1470m) 7(1800m) 8(2100m)
Mi, 13.11. 1:40 5(1410m) 7(1500m) 7(1800m)
Mi, 13.11. 1:30 2(1500m) 5(2100m)
Mi, 13.11. 1:00 5(1800m) 7(2400m)
Mi, 13.11. 0:30 4(1800m) 7(2400m)
Mi, 13.11. 0:00 1(2700m)
Di, 12.11. 23:30 keine Wolken
Ortszeit Luftdruck NN (hPa) Tendenz (hPa in 3 Std.)
Mi, 13.11. 1:00 1000 - 0,7
Di, 12.11. 19:00 1002 + 0,1
Di, 12.11. 13:00 1002 - 0,1
Di, 12.11. 7:00 1002 - 0,9
Di, 12.11. 1:00 1004 + 0,2
Mo, 11.11. 19:00 1003 + 0,7
Mo, 11.11. 13:00 1004 - 3,1
Mo, 11.11. 7:00 1010 - 2,9
Ortszeit Luftdruck NN (hPa) Tendenz (hPa in 3 Std.)
Mi, 13.11. 2:30 1001 + 0,1
Mi, 13.11. 2:20 1001 keine Meldung
Mi, 13.11. 2:10 1001 keine Meldung
Mi, 13.11. 2:00 1001 - 0,2
Mi, 13.11. 1:50 1001 keine Meldung
Mi, 13.11. 1:40 1001 keine Meldung
Mi, 13.11. 1:30 1000 - 0,3
Mi, 13.11. 1:00 1000 - 0,7
Mi, 13.11. 0:30 1000 - 0,7
Mi, 13.11. 0:00 1001 - 0,9
Di, 12.11. 23:30 1001 - 0,9
Ortszeit Schneehöhe (cm)
Mi, 13.11. 1:00 0
Di, 12.11. 19:00 0
Di, 12.11. 13:00 0
Di, 12.11. 7:00 0
Di, 12.11. 1:00 0
Mo, 11.11. 19:00 0
Mo, 11.11. 13:00 0
Mo, 11.11. 7:00 0
Ortszeit Schneehöhe (cm)
Mi, 13.11. 2:30 0
Mi, 13.11. 2:20 0
Mi, 13.11. 2:10 0
Mi, 13.11. 2:00 0
Mi, 13.11. 1:50 0
Mi, 13.11. 1:40 0
Mi, 13.11. 1:30 0
Mi, 13.11. 1:00 0
Mi, 13.11. 0:30 0
Mi, 13.11. 0:00 0
Di, 12.11. 23:30 0
Link zu dieser Seite / Seite empfehlen

Das Wetter in ...